Hovedside
METAR-TAF:

METAR-TAF

Lufthavner :

Sandefjord, Norge

Sandefjord lufthavn

breddegrad: 59-12N, lengdegrad: 010-16E, høyde over havet: 8 m

Gjeldene værobservasjon

Denne rapporten ble laget for 19 minutter siden, klokken 22:20 UTC
Vind 5 kt fra Nord
Temperatur 16°C
Luftfuktighet 77%
Trykk 1014 hPa
Sikt 10 km eller mer

METAR: ENTO 242220Z AUTO 01005KT 9999 OVC092/// 16/12 Q1014

Tid: 00:39 (22:39 UTC)

Varsel

Varsel gyldig fra 24. klokken 18 UTC til 25. klokken 18 UTC
Vind 5 kt fra Nord-nordøst
Sikt 10 km eller mer
ingen skyer under 1500 m og ingen bygeskyer

TAF: ENTO 2418/2518 03005KT CAVOK

Værobservasjoner og værvarsel for over 4000 flyplasser (METAR- og TAF-rapporter).

Tilgjengelige stasjoner er representert av de røde og gule prikkene på kartet.

Hold musepekeren over prikken for å se navnet på stasjonen.

Klikk så for å se værobservasjoner og -varsler.

For å forandre kartet kan du klikke på den grønne knappen med svart kryss for å zoome inn, på den grønne knappen med strek for å zoome ut, eller på de grønne pilene for å se tilstøtende kart.


METAR-TAF: